Time;durP1;ratioP1;P1;durP2;ratioP2;P2;SDS_P1;SDS_P2;PMS_P1;PMS_P2;Temp;Humidity;BMP_temperature;BMP_pressure;BME280_temperature;BME280_humidity;BME280_pressure;Samples;Min_cycle;Max_cycle;Signal;HPM_P1;HPM_P2
2024/03/21 00:02:27;;;;;;;7.15;3.55;;;;;;;8.78;70.38;98854.84;4994467;27;104188;-68
2024/03/21 00:04:53;;;;;;;16.50;3.80;;;;;;;8.70;71.11;98849.53;5013951;27;102820;-69
2024/03/21 00:07:19;;;;;;;10.65;4.35;;;;;;;8.38;72.74;98857.94;5014979;27;102715;-69
2024/03/21 00:09:48;;;;;;;9.82;3.95;;;;;;;8.41;72.70;98857.63;5010436;27;103147;-69
2024/03/21 00:12:13;;;;;;;15.63;3.40;;;;;;;8.48;72.42;98857.91;5011969;27;103165;-68
2024/03/21 00:14:41;;;;;;;8.63;4.22;;;;;;;8.19;73.75;98858.88;5010381;27;102717;-69
2024/03/21 00:17:07;;;;;;;8.40;3.80;;;;;;;8.32;72.99;98861.16;4992788;28;103213;-69
2024/03/21 00:19:33;;;;;;;9.35;4.70;;;;;;;7.92;74.39;98857.94;5011240;27;103117;-69
2024/03/21 00:21:59;;;;;;;10.13;4.40;;;;;;;8.12;73.59;98848.94;5008783;27;103216;-69
2024/03/21 00:24:24;;;;;;;8.73;3.72;;;;;;;8.19;73.66;98853.59;5010844;27;103270;-69
2024/03/21 00:26:52;;;;;;;7.50;3.30;;;;;;;8.25;72.96;98847.75;5012270;28;103097;-68
2024/03/21 00:29:18;;;;;;;10.13;3.85;;;;;;;8.25;72.96;98847.75;4996963;27;106434;-69
2024/03/21 00:31:46;;;;;;;10.32;4.07;;;;;;;7.99;74.27;98847.63;5014003;27;102857;-68
2024/03/21 00:34:12;;;;;;;8.43;3.70;;;;;;;8.06;73.73;98844.25;5012753;27;102913;-68
2024/03/21 00:36:39;;;;;;;9.27;3.85;;;;;;;7.97;74.54;98839.88;5012348;27;103184;-68
2024/03/21 00:39:09;;;;;;;11.00;3.20;;;;;;;8.07;74.15;98835.38;5010118;27;104010;-68
2024/03/21 00:41:35;;;;;;;6.32;3.25;;;;;;;8.16;72.80;98833.63;5010292;27;103257;-68
2024/03/21 00:44:01;;;;;;;8.00;3.20;;;;;;;8.27;72.74;98827.31;5013673;27;102723;-69
2024/03/21 00:46:26;;;;;;;9.57;3.30;;;;;;;8.13;73.13;98829.50;5004969;27;102929;-70
2024/03/21 00:48:54;;;;;;;10.82;3.88;;;;;;;7.89;74.14;98830.06;5010563;27;103343;-69
2024/03/21 00:51:20;;;;;;;19.73;3.85;;;;;;;7.72;75.34;98830.84;4993123;27;103241;-70
2024/03/21 00:53:45;;;;;;;14.82;3.22;;;;;;;7.97;74.41;98826.69;5012211;27;103171;-69
2024/03/21 00:56:11;;;;;;;7.57;3.50;;;;;;;7.75;75.04;98823.47;5007506;28;103271;-69
2024/03/21 00:58:37;;;;;;;6.82;3.03;;;;;;;7.87;74.82;98823.28;4991510;27;104104;-69
2024/03/21 01:01:03;;;;;;;9.45;3.65;;;;;;;7.79;74.86;98831.91;5010816;27;104057;-69
2024/03/21 01:03:29;;;;;;;9.05;3.22;;;;;;;7.96;74.29;98827.66;5010535;27;102746;-69
2024/03/21 01:05:55;;;;;;;7.90;3.58;;;;;;;7.60;76.09;98828.41;5014270;27;102838;-69
2024/03/21 01:08:21;;;;;;;6.80;3.40;;;;;;;7.84;75.43;98834.13;5004046;27;103754;-69
2024/03/21 01:10:51;;;;;;;6.70;3.30;;;;;;;7.75;75.64;98826.09;4997002;28;103458;-69
2024/03/21 01:13:20;;;;;;;10.57;4.30;;;;;;;7.72;75.15;98820.31;4990893;27;102835;-69
2024/03/21 01:15:46;;;;;;;8.00;3.97;;;;;;;7.82;76.65;98815.81;4995451;28;102813;-69
2024/03/21 01:18:13;;;;;;;11.60;3.92;;;;;;;8.11;74.73;98822.72;5007754;28;103419;-69
2024/03/21 01:20:40;;;;;;;7.88;3.95;;;;;;;8.22;74.03;98816.38;4988041;28;107893;-69
2024/03/21 01:23:07;;;;;;;8.43;3.97;;;;;;;8.29;74.02;98817.44;5010075;28;102873;-69
2024/03/21 01:25:38;;;;;;;8.15;3.65;;;;;;;8.33;73.95;98813.50;4995873;27;102970;-69
2024/03/21 01:28:08;;;;;;;9.75;3.97;;;;;;;8.42;73.06;98820.53;5007669;28;103491;-69
2024/03/21 01:30:34;;;;;;;7.93;4.40;;;;;;;8.32;74.00;98811.88;4990519;28;103320;-69
2024/03/21 01:33:03;;;;;;;10.60;4.72;;;;;;;8.32;74.14;98811.88;4998966;28;102753;-68
2024/03/21 01:35:29;;;;;;;9.43;4.22;;;;;;;8.30;74.75;98811.19;5002891;27;102947;-69
2024/03/21 01:37:56;;;;;;;10.20;4.80;;;;;;;8.19;74.94;98822.78;5009784;28;103634;-69
2024/03/21 01:40:22;;;;;;;9.10;5.13;;;;;;;8.27;74.71;98808.84;5007328;27;106075;-69
2024/03/21 01:42:49;;;;;;;11.05;5.15;;;;;;;8.34;74.43;98812.53;4993993;28;103068;-69
2024/03/21 01:45:16;;;;;;;7.10;4.30;;;;;;;8.29;75.08;98817.44;5009764;27;103450;-69
2024/03/21 01:47:42;;;;;;;9.80;4.68;;;;;;;8.29;74.90;98807.72;5006299;27;103407;-69
2024/03/21 01:50:08;;;;;;;8.73;4.28;;;;;;;8.29;75.08;98807.72;5005906;28;103241;-69
2024/03/21 01:52:40;;;;;;;8.55;4.63;;;;;;;8.15;74.80;98800.31;5006960;27;102824;-69
2024/03/21 01:55:07;;;;;;;7.80;4.25;;;;;;;8.18;74.83;98801.84;4988529;28;102972;-68
2024/03/21 01:57:36;;;;;;;11.38;4.78;;;;;;;8.07;75.24;98803.72;5000064;27;103638;-69
2024/03/21 02:00:03;;;;;;;11.52;4.85;;;;;;;8.04;75.71;98803.19;5007354;28;103398;-68
2024/03/21 02:02:30;;;;;;;16.60;5.05;;;;;;;7.99;75.73;98802.78;5007456;27;102904;-69
2024/03/21 02:04:57;;;;;;;14.48;5.82;;;;;;;7.74;76.55;98803.38;5011066;28;102928;-69
2024/03/21 02:07:22;;;;;;;11.85;5.00;;;;;;;7.75;76.86;98804.19;5011227;28;103379;-67
2024/03/21 02:09:50;;;;;;;12.52;5.07;;;;;;;7.94;76.62;98808.53;5008325;28;103325;-68
2024/03/21 02:12:48;;;;;;;8.10;4.32;;;;;;;8.06;75.90;98809.97;4988283;27;102771;-68
2024/03/21 02:15:14;;;;;;;12.35;4.43;;;;;;;7.99;76.35;98801.00;4992457;28;102754;-67
2024/03/21 02:17:40;;;;;;;12.75;5.55;;;;;;;7.79;76.40;98806.38;5004078;28;103308;-68
2024/03/21 02:20:08;;;;;;;9.77;5.15;;;;;;;7.79;77.05;98801.13;5005390;27;103343;-68
2024/03/21 02:22:37;;;;;;;11.18;5.95;;;;;;;7.81;77.35;98803.59;5006692;27;102746;-68
2024/03/21 02:25:11;;;;;;;13.65;6.85;;;;;;;7.66;77.40;98805.88;4987357;28;103189;-68
2024/03/21 02:27:40;;;;;;;13.48;6.72;;;;;;;7.86;76.85;98806.63;4972519;28;104804;-67
2024/03/21 02:30:08;;;;;;;16.02;6.88;;;;;;;7.92;76.01;98811.28;4986825;28;103468;-67
2024/03/21 02:32:34;;;;;;;10.27;5.90;;;;;;;8.05;76.02;98810.13;5005002;27;102750;-68
2024/03/21 02:35:07;;;;;;;12.00;5.85;;;;;;;8.00;76.19;98818.47;5002188;28;102719;-68
2024/03/21 02:37:32;;;;;;;10.60;5.57;;;;;;;8.12;76.26;98806.72;4999584;28;105226;-67
2024/03/21 02:39:58;;;;;;;10.13;4.55;;;;;;;8.23;75.43;98804.84;4981104;27;103252;-68
2024/03/21 02:42:24;;;;;;;11.90;5.40;;;;;;;8.13;74.95;98813.69;5012430;27;103185;-68
2024/03/21 02:44:54;;;;;;;10.27;5.13;;;;;;;8.20;75.26;98818.34;4998535;28;103047;-67
2024/03/21 02:47:20;;;;;;;12.20;5.25;;;;;;;8.02;76.47;98811.25;5010779;27;103252;-66
2024/03/21 02:49:48;;;;;;;8.80;4.50;;;;;;;8.01;76.73;98814.84;4996512;28;103034;-67
2024/03/21 02:52:14;;;;;;;14.57;5.20;;;;;;;8.21;75.36;98812.09;4989916;28;102649;-67
2024/03/21 02:54:40;;;;;;;13.75;4.93;;;;;;;8.33;74.97;98813.50;5010708;28;103117;-68
2024/03/21 02:57:10;;;;;;;13.43;5.60;;;;;;;8.01;76.69;98814.84;5010612;27;103424;-67
2024/03/21 02:59:36;;;;;;;15.98;9.05;;;;;;;7.92;77.45;98818.38;5005936;27;103227;-67
2024/03/21 03:02:05;;;;;;;27.52;11.75;;;;;;;8.18;77.18;98822.94;4990485;28;104695;-67
2024/03/21 03:04:31;;;;;;;17.75;9.73;;;;;;;8.35;75.92;98818.66;5014535;27;102841;-67
2024/03/21 03:06:57;;;;;;;23.95;13.52;;;;;;;8.41;75.56;98821.53;5012188;27;103175;-67
2024/03/21 03:09:26;;;;;;;23.52;13.10;;;;;;;8.26;76.68;98823.03;4993366;28;104854;-67
2024/03/21 03:11:51;;;;;;;13.27;7.97;;;;;;;8.22;77.33;98822.47;5007217;27;102826;-67
2024/03/21 03:14:17;;;;;;;13.38;7.68;;;;;;;8.41;76.33;98831.22;4993557;27;103019;-67
2024/03/21 03:16:43;;;;;;;10.27;5.60;;;;;;;8.51;75.49;98826.72;5012650;28;105777;-67
2024/03/21 03:19:08;;;;;;;9.65;4.90;;;;;;;8.54;75.22;98833.53;4990753;28;106421;-67
2024/03/21 03:21:36;;;;;;;10.48;5.30;;;;;;;8.57;74.43;98835.88;4999605;27;102846;-67
2024/03/21 03:24:02;;;;;;;8.20;4.60;;;;;;;8.52;74.46;98833.69;4978774;28;102747;-68
2024/03/21 03:26:28;;;;;;;9.65;4.30;;;;;;;8.56;74.23;98839.50;5008188;27;103190;-68
2024/03/21 03:28:55;;;;;;;8.65;3.97;;;;;;;8.59;74.11;98845.31;5009347;27;105177;-66
2024/03/21 03:31:21;;;;;;;7.53;4.05;;;;;;;8.63;73.98;98843.16;4987722;27;102818;-67
2024/03/21 03:36:31;;;;;;;7.90;4.05;;;;;;;8.64;74.27;98842.19;5006738;27;102701;-67
2024/03/21 03:38:59;;;;;;;7.38;4.25;;;;;;;8.50;74.71;98845.38;4991221;28;103342;-67
2024/03/21 03:41:27;;;;;;;9.50;4.45;;;;;;;8.52;74.74;98849.53;4988157;27;102849;-67
2024/03/21 03:43:55;;;;;;;9.30;4.90;;;;;;;8.42;74.44;98849.56;5009000;27;102760;-67
2024/03/21 03:46:23;;;;;;;11.73;4.65;;;;;;;8.41;75.28;98853.19;5007765;27;104857;-67
2024/03/21 03:48:49;;;;;;;8.77;4.57;;;;;;;8.51;75.37;98852.31;4995003;28;104093;-67
2024/03/21 03:51:17;;;;;;;10.38;4.40;;;;;;;8.34;76.11;98852.13;5013834;27;103026;-67
2024/03/21 03:53:43;;;;;;;12.15;5.00;;;;;;;8.10;76.39;98855.34;5008003;28;102747;-67
2024/03/21 03:56:11;;;;;;;8.85;4.93;;;;;;;7.95;77.92;98855.00;4996450;28;105864;-67
2024/03/21 03:58:37;;;;;;;9.63;4.80;;;;;;;7.83;78.20;98864.91;5003772;28;103198;-67
2024/03/21 04:01:03;;;;;;;8.90;4.68;;;;;;;7.86;78.72;98866.44;5007994;27;103454;-67
2024/03/21 04:03:29;;;;;;;6.70;4.03;;;;;;;8.08;77.75;98860.78;4992164;27;102796;-67
2024/03/21 04:05:59;;;;;;;10.45;3.83;;;;;;;8.20;77.12;98871.09;5010096;28;103288;-66
2024/03/21 04:08:24;;;;;;;13.25;4.72;;;;;;;8.06;77.32;98869.81;4998201;27;105712;-66
2024/03/21 04:10:51;;;;;;;9.93;5.13;;;;;;;7.99;77.87;98864.31;5006799;27;103103;-67
2024/03/21 04:13:16;;;;;;;11.30;4.65;;;;;;;7.89;78.71;98872.25;5004973;27;103090;-67
2024/03/21 04:15:42;;;;;;;11.50;4.72;;;;;;;7.93;78.38;98875.44;4987178;28;103239;-67
2024/03/21 04:18:08;;;;;;;9.48;4.50;;;;;;;7.84;78.27;98871.03;4991141;28;103250;-67
2024/03/21 04:20:34;;;;;;;10.50;4.32;;;;;;;7.86;78.80;98872.56;4990903;27;102711;-67
2024/03/21 04:22:59;;;;;;;7.30;3.67;;;;;;;8.12;77.58;98872.69;4989427;28;102720;-68
2024/03/21 04:25:25;;;;;;;7.68;3.80;;;;;;;8.30;77.18;98871.88;5002986;27;103256;-66
2024/03/21 04:27:53;;;;;;;7.43;4.18;;;;;;;8.20;77.09;98865.81;5007085;28;103733;-67
2024/03/21 04:30:19;;;;;;;13.55;5.30;;;;;;;8.12;77.35;98871.84;5010090;27;102700;-67
2024/03/21 04:32:44;;;;;;;9.55;4.40;;;;;;;7.99;78.22;98866.94;5007943;27;102644;-67
2024/03/21 04:35:10;;;;;;;8.48;4.22;;;;;;;8.16;78.01;98867.09;5006604;27;103191;-66
2024/03/21 04:37:38;;;;;;;8.27;3.65;;;;;;;8.26;77.16;98875.78;5006211;28;103421;-66
2024/03/21 04:40:04;;;;;;;10.35;4.20;;;;;;;8.18;77.52;98881.00;5010216;28;102760;-67
2024/03/21 04:42:30;;;;;;;9.00;4.25;;;;;;;8.31;77.13;98886.72;5006283;27;102832;-67
2024/03/21 04:44:55;;;;;;;8.10;4.13;;;;;;;8.38;76.54;98890.41;4988214;28;103458;-68
2024/03/21 04:47:21;;;;;;;7.63;4.40;;;;;;;8.23;77.12;98881.38;5004824;27;103114;-68
2024/03/21 04:49:54;;;;;;;10.32;4.45;;;;;;;8.05;78.42;98892.72;5008440;28;103448;-67
2024/03/21 04:52:20;;;;;;;9.80;4.60;;;;;;;7.97;78.45;98887.34;5010414;27;102691;-67
2024/03/21 04:54:52;;;;;;;13.07;5.50;;;;;;;7.77;78.56;98883.97;4989122;28;103200;-68
2024/03/21 04:57:18;;;;;;;10.45;4.35;;;;;;;7.95;78.85;98879.59;5004667;27;103446;-68
2024/03/21 04:59:46;;;;;;;13.70;4.63;;;;;;;8.19;77.75;98890.53;5007913;27;102734;-68
2024/03/21 05:02:12;;;;;;;8.85;4.55;;;;;;;8.14;77.90;98899.72;5007410;28;102918;-68
2024/03/21 05:04:38;;;;;;;7.75;4.40;;;;;;;8.13;77.80;98892.81;5006326;27;107880;-68
2024/03/21 05:07:04;;;;;;;10.63;4.63;;;;;;;8.13;77.52;98884.06;4986889;28;103244;-67
2024/03/21 05:09:29;;;;;;;8.88;4.28;;;;;;;8.16;77.71;98894.31;5005442;27;102735;-68
2024/03/21 05:11:57;;;;;;;10.98;5.13;;;;;;;8.07;77.96;98890.75;4983666;28;102904;-68
2024/03/21 05:14:23;;;;;;;7.80;4.53;;;;;;;7.89;79.13;98895.16;4996872;27;103164;-68
2024/03/21 05:16:49;;;;;;;8.52;4.28;;;;;;;8.08;78.51;98895.06;5006890;27;103123;-67
2024/03/21 05:19:15;;;;;;;9.10;5.05;;;;;;;7.82;79.24;98887.00;5009534;27;102895;-70
2024/03/21 05:21:41;;;;;;;12.15;4.82;;;;;;;7.89;79.25;98892.53;5003124;28;104117;-66
2024/03/21 05:24:07;;;;;;;11.85;5.25;;;;;;;7.91;78.86;98887.91;5006333;27;103299;-66
2024/03/21 05:26:32;;;;;;;10.63;5.28;;;;;;;7.91;79.41;98882.66;4999672;27;103179;-65
2024/03/21 05:28:58;;;;;;;8.02;4.72;;;;;;;8.06;78.82;98881.19;4981013;28;103066;-66
2024/03/21 05:31:27;;;;;;;12.70;4.32;;;;;;;8.29;77.99;98886.88;5000051;27;102718;-66
2024/03/21 05:33:58;;;;;;;10.45;4.90;;;;;;;8.38;78.01;98892.25;4996037;27;103189;-66
2024/03/21 05:36:24;;;;;;;13.52;5.47;;;;;;;8.34;78.01;98883.78;4981263;27;108524;-66
2024/03/21 05:38:49;;;;;;;10.40;4.80;;;;;;;8.44;77.71;98883.72;5006223;28;103415;-66
2024/03/21 05:41:15;;;;;;;8.90;4.30;;;;;;;8.57;77.33;98893.97;4976119;27;102913;-66
2024/03/21 05:43:41;;;;;;;9.35;5.28;;;;;;;8.62;76.99;98894.34;4995042;28;103128;-68
2024/03/21 05:46:09;;;;;;;11.02;4.88;;;;;;;8.50;77.41;98892.88;4984657;28;105418;-66
2024/03/21 05:48:35;;;;;;;13.13;4.88;;;;;;;8.30;78.28;98892.97;4999073;27;102969;-67
2024/03/21 05:51:02;;;;;;;8.98;5.03;;;;;;;8.36;78.90;98887.13;5005114;28;102825;-67
2024/03/21 05:53:28;;;;;;;9.57;5.10;;;;;;;8.44;78.17;98887.19;5005650;27;103685;-66
2024/03/21 05:56:04;;;;;;;8.40;4.88;;;;;;;8.55;77.71;98895.91;4988414;28;103267;-67
2024/03/21 05:58:32;;;;;;;8.43;4.78;;;;;;;8.72;76.99;98892.44;5001469;27;103306;-66
2024/03/21 06:03:33;;;;;;;11.20;4.70;;;;;;;8.74;76.27;98897.59;4971672;27;106643;-66
2024/03/21 06:06:00;;;;;;;10.75;5.03;;;;;;;8.58;77.91;98895.59;4985925;28;103194;-66
2024/03/21 06:08:26;;;;;;;10.40;5.13;;;;;;;8.73;77.03;98895.91;4966151;27;102948;-67
2024/03/21 06:10:51;;;;;;;11.55;5.30;;;;;;;8.41;78.41;98900.69;5004371;27;103070;-66
2024/03/21 06:13:17;;;;;;;13.68;7.15;;;;;;;8.58;78.31;98907.00;4988574;27;103549;-67
2024/03/21 06:15:43;;;;;;;11.18;5.65;;;;;;;8.88;76.92;98909.41;4992695;28;105650;-67
2024/03/21 06:18:09;;;;;;;9.48;4.55;;;;;;;9.07;76.11;98922.44;4993694;28;102767;-65
2024/03/21 06:20:38;;;;;;;14.00;4.32;;;;;;;9.20;75.50;98915.94;4986309;27;104586;-66
2024/03/21 06:23:04;;;;;;;10.13;4.07;;;;;;;9.26;75.50;98912.66;5006868;27;103661;-72
2024/03/21 06:25:30;;;;;;;10.05;4.97;;;;;;;8.99;76.28;98919.75;5001783;27;103199;-71
2024/03/21 06:27:56;;;;;;;8.93;3.97;;;;;;;9.10;76.47;98929.25;5005362;28;102754;-71
2024/03/21 06:30:21;;;;;;;6.97;3.90;;;;;;;9.27;75.77;98935.47;5003855;27;102762;-72
2024/03/21 06:32:49;;;;;;;14.38;4.95;;;;;;;9.23;76.46;98944.69;4988614;28;103539;-72
2024/03/21 06:35:15;;;;;;;11.27;5.75;;;;;;;9.29;76.26;98941.44;5004959;27;103136;-71
2024/03/21 06:37:43;;;;;;;9.35;4.00;;;;;;;9.43;76.20;98938.25;5005031;27;102761;-73
2024/03/21 06:40:11;;;;;;;9.98;4.60;;;;;;;9.40;76.37;98946.47;5004466;27;102866;-73
2024/03/21 06:42:37;;;;;;;8.25;4.68;;;;;;;9.49;75.50;98951.84;5007263;28;105373;-71
2024/03/21 06:45:04;;;;;;;12.15;4.70;;;;;;;9.56;75.00;98953.72;5001823;28;103295;-72
2024/03/21 06:47:30;;;;;;;8.88;4.25;;;;;;;9.70;74.72;98954.94;4974063;27;102848;-71
2024/03/21 06:49:59;;;;;;;12.43;5.43;;;;;;;9.08;77.37;98953.19;4997588;28;102753;-73
2024/03/21 06:52:24;;;;;;;13.98;4.82;;;;;;;9.36;77.54;98958.34;4990628;27;105883;-72
2024/03/21 06:54:50;;;;;;;11.63;5.03;;;;;;;9.46;76.61;98967.00;5005259;28;104855;-72
2024/03/21 06:57:18;;;;;;;11.98;5.43;;;;;;;9.63;76.19;98969.78;5004544;27;102927;-71
2024/03/21 06:59:44;;;;;;;9.48;4.78;;;;;;;9.67;75.80;98975.56;5010494;28;102935;-71
2024/03/21 07:02:10;;;;;;;10.43;5.43;;;;;;;9.81;75.49;98977.63;4983858;28;103398;-73
2024/03/21 07:04:36;;;;;;;13.02;5.30;;;;;;;9.67;76.09;98981.72;5005283;27;103394;-72
2024/03/21 07:07:05;;;;;;;11.38;6.20;;;;;;;9.85;75.88;98986.09;5000686;28;105057;-69
2024/03/21 07:09:30;;;;;;;18.05;7.40;;;;;;;9.79;75.65;98985.75;5001348;27;103160;-71
2024/03/21 07:12:01;;;;;;;13.18;7.35;;;;;;;9.91;75.56;98993.41;4977152;28;103817;-70
2024/03/21 07:14:35;;;;;;;11.73;7.03;;;;;;;9.97;74.84;98992.81;4980623;28;106251;-69
2024/03/21 07:17:04;;;;;;;12.82;7.97;;;;;;;10.07;74.49;98993.53;4981302;28;102846;-70
2024/03/21 07:19:36;;;;;;;14.13;7.30;;;;;;;10.20;74.30;98987.78;4974617;27;102784;-70
2024/03/21 07:22:05;;;;;;;15.25;6.45;;;;;;;10.33;73.89;98987.34;4982503;28;103744;-71
2024/03/21 07:24:32;;;;;;;17.35;7.53;;;;;;;10.19;73.72;98983.50;4987974;27;105428;-71
2024/03/21 07:26:58;;;;;;;14.65;7.45;;;;;;;10.24;73.79;98993.59;4987356;28;102866;-72
2024/03/21 07:29:24;;;;;;;12.30;6.55;;;;;;;10.48;73.71;98984.97;5014484;27;104355;-71
2024/03/21 07:31:50;;;;;;;18.05;7.63;;;;;;;10.66;72.87;98991.94;4995412;28;103152;-72
2024/03/21 07:34:16;;;;;;;12.45;7.07;;;;;;;10.76;72.80;98993.47;4994593;28;105656;-71
2024/03/21 07:36:41;;;;;;;11.05;6.40;;;;;;;10.88;72.60;98993.16;4990877;28;102736;-72
2024/03/21 07:39:07;;;;;;;14.82;7.65;;;;;;;11.03;72.27;98996.84;5002972;28;102935;-72
2024/03/21 07:41:33;;;;;;;14.95;7.32;;;;;;;11.24;71.87;98998.16;4987093;28;104233;-66
2024/03/21 07:44:01;;;;;;;10.27;6.00;;;;;;;11.28;71.71;99002.16;4981438;28;105747;-67
2024/03/21 07:46:29;;;;;;;13.48;5.30;;;;;;;11.40;71.14;98995.53;4987013;27;103957;-67
2024/03/21 07:48:58;;;;;;;10.27;5.40;;;;;;;11.33;71.09;98994.53;5001150;28;103228;-66
2024/03/21 07:51:27;;;;;;;9.30;4.78;;;;;;;11.50;70.85;98990.06;4974509;27;106261;-67
2024/03/21 07:53:55;;;;;;;9.07;5.75;;;;;;;11.36;71.25;99006.66;4984173;27;106443;-67
2024/03/21 07:56:21;;;;;;;15.52;5.10;;;;;;;11.66;70.41;99004.28;4991814;27;103076;-67
2024/03/21 07:58:51;;;;;;;10.40;4.65;;;;;;;11.87;69.54;99009.06;4990237;28;102892;-67
2024/03/21 08:01:19;;;;;;;10.32;5.32;;;;;;;11.93;69.30;99000.44;4997833;27;103462;-67
2024/03/21 08:03:45;;;;;;;12.15;6.30;;;;;;;11.82;68.26;99008.75;4984944;28;103164;-67
2024/03/21 08:06:11;;;;;;;14.73;5.20;;;;;;;11.75;69.20;99008.59;4982425;28;102812;-67
2024/03/21 08:08:37;;;;;;;11.38;5.10;;;;;;;12.05;69.08;99014.19;5000369;27;104105;-67
2024/03/21 08:11:05;;;;;;;8.32;4.45;;;;;;;12.23;68.58;99014.00;4977896;28;104578;-67
2024/03/21 08:13:31;;;;;;;13.57;4.85;;;;;;;12.32;68.27;99015.63;4994982;27;103744;-67
2024/03/21 08:15:59;;;;;;;8.75;5.05;;;;;;;12.40;67.47;99017.41;4977153;28;102813;-67
2024/03/21 08:18:24;;;;;;;12.60;6.05;;;;;;;12.31;66.98;99024.56;4983720;27;102823;-67
2024/03/21 08:20:51;;;;;;;11.68;5.50;;;;;;;12.70;67.30;99031.72;4982171;28;103267;-66
2024/03/21 08:23:20;;;;;;;12.20;4.95;;;;;;;13.04;66.58;99030.53;4999722;27;104768;-66
2024/03/21 08:25:48;;;;;;;9.07;4.72;;;;;;;13.13;65.24;99023.34;4996680;28;104572;-67
2024/03/21 08:28:14;;;;;;;11.07;4.82;;;;;;;12.90;66.59;99024.16;4998547;27;102801;-67
2024/03/21 08:30:46;;;;;;;12.95;5.30;;;;;;;13.07;65.98;99027.56;4981277;28;102846;-67
2024/03/21 08:33:14;;;;;;;14.20;5.07;;;;;;;13.40;65.70;99039.81;4996308;28;104008;-67
2024/03/21 08:35:41;;;;;;;15.43;5.20;;;;;;;12.92;66.07;99037.28;4987395;27;104199;-67
2024/03/21 08:38:07;;;;;;;12.30;5.13;;;;;;;12.71;67.02;99036.03;4998615;27;104738;-67
2024/03/21 08:40:33;;;;;;;9.95;5.07;;;;;;;12.74;67.26;99048.16;4981614;27;103202;-66
2024/03/21 08:42:59;;;;;;;12.13;5.35;;;;;;;12.42;68.26;99064.06;4999640;27;107154;-66
2024/03/21 08:45:25;;;;;;;9.88;5.25;;;;;;;12.10;68.62;99063.16;4999547;27;103809;-67
2024/03/21 08:47:51;;;;;;;17.55;5.88;;;;;;;12.40;68.72;99063.38;4999748;27;102883;-67
2024/03/21 08:50:24;;;;;;;15.38;5.53;;;;;;;13.06;66.31;99063.13;4973400;27;105503;-67
2024/03/21 08:52:50;;;;;;;15.50;5.70;;;;;;;12.81;67.45;99066.91;4982069;27;103246;-67
2024/03/21 08:55:18;;;;;;;13.63;4.70;;;;;;;12.92;67.62;99064.69;4982048;27;102846;-67
2024/03/21 08:57:43;;;;;;;10.75;4.35;;;;;;;13.18;66.85;99070.66;4998353;27;102868;-66
2024/03/21 09:00:10;;;;;;;9.15;4.60;;;;;;;13.39;66.69;99070.09;4997492;28;103877;-67
2024/03/21 09:02:35;;;;;;;8.85;4.30;;;;;;;13.40;66.68;99077.88;4999160;27;103019;-67
2024/03/21 09:05:01;;;;;;;8.65;4.75;;;;;;;13.70;66.03;99078.00;5009101;27;102679;-67
2024/03/21 09:07:27;;;;;;;9.20;4.45;;;;;;;14.02;65.48;99073.38;5005226;27;102861;-67
2024/03/21 09:09:53;;;;;;;9.20;5.15;;;;;;;14.32;64.84;99065.44;5007225;27;106211;-66
2024/03/21 09:12:18;;;;;;;9.80;4.82;;;;;;;14.75;62.61;99060.28;5007665;27;103180;-66
2024/03/21 09:14:44;;;;;;;11.05;4.80;;;;;;;15.16;62.23;99056.22;5006054;28;102851;-68
2024/03/21 09:17:12;;;;;;;16.40;5.50;;;;;;;15.21;61.44;99064.50;5006178;28;103091;-67
2024/03/21 09:19:38;;;;;;;9.07;4.57;;;;;;;15.01;61.79;99066.09;5000848;27;107895;-67
2024/03/21 09:22:03;;;;;;;11.85;6.00;;;;;;;14.10;63.31;99065.31;5004908;27;103421;-67
2024/03/21 09:24:34;;;;;;;10.73;4.40;;;;;;;14.73;64.07;99056.97;5004952;27;102862;-67
2024/03/21 09:27:05;;;;;;;9.70;4.10;;;;;;;15.25;63.07;99060.44;5005706;27;102761;-69
2024/03/21 09:29:34;;;;;;;7.63;4.32;;;;;;;15.22;63.29;99060.81;4987390;27;102701;-68
2024/03/21 09:32:02;;;;;;;12.98;4.40;;;;;;;15.27;62.00;99065.56;5003177;28;103247;-69
2024/03/21 09:34:27;;;;;;;10.43;3.90;;;;;;;15.63;60.84;99062.03;5006145;27;102809;-69
2024/03/21 09:36:53;;;;;;;12.30;4.07;;;;;;;15.61;60.45;99064.03;4989482;28;102794;-69
2024/03/21 09:39:19;;;;;;;13.65;4.80;;;;;;;15.27;60.37;99078.09;4985159;27;104479;-68
2024/03/21 09:41:45;;;;;;;8.35;4.43;;;;;;;15.27;60.42;99078.09;5006851;27;103809;-68
2024/03/21 09:44:14;;;;;;;12.00;4.82;;;;;;;14.94;60.87;99079.38;4988449;28;102843;-68
2024/03/21 09:46:48;;;;;;;7.47;4.20;;;;;;;15.09;60.74;99088.19;4980312;28;102752;-67
2024/03/21 09:49:14;;;;;;;6.95;3.67;;;;;;;15.28;59.75;99091.25;4987022;27;103511;-67
2024/03/21 09:51:48;;;;;;;10.48;4.80;;;;;;;14.72;59.94;99091.81;4974627;28;106107;-67
2024/03/21 09:54:14;;;;;;;10.32;4.60;;;;;;;15.57;58.26;99084.13;5005775;27;102867;-67
2024/03/21 09:56:42;;;;;;;8.88;4.88;;;;;;;15.80;57.64;99099.13;5001992;27;102811;-67
2024/03/21 09:59:20;;;;;;;10.70;4.90;;;;;;;15.87;58.07;99095.53;4982490;28;103440;-69
2024/03/21 10:01:49;;;;;;;12.23;5.50;;;;;;;15.80;58.28;99094.63;4971100;28;107999;-68
2024/03/21 10:04:15;;;;;;;9.73;4.93;;;;;;;15.91;57.74;99095.97;4984049;27;102731;-69
2024/03/21 10:06:54;;;;;;;14.30;5.47;;;;;;;15.52;59.62;99110.56;4957106;28;102862;-68
2024/03/21 10:09:20;;;;;;;17.75;6.88;;;;;;;15.24;59.18;99097.97;4984805;27;103171;-68
2024/03/21 10:11:49;;;;;;;9.68;5.60;;;;;;;15.71;58.69;99104.59;4994951;28;104598;-69
2024/03/21 10:14:20;;;;;;;10.65;5.78;;;;;;;15.86;57.82;99101.06;4967921;27;102840;-68
2024/03/21 10:16:46;;;;;;;8.65;5.22;;;;;;;15.71;58.48;99109.94;4993226;28;102770;-68
2024/03/21 10:19:12;;;;;;;9.30;5.40;;;;;;;16.00;57.85;99104.69;4995337;28;103084;-69
2024/03/21 10:21:37;;;;;;;11.18;6.22;;;;;;;16.18;57.94;99098.84;4966562;28;107792;-69
2024/03/21 10:24:05;;;;;;;17.65;6.07;;;;;;;16.51;57.10;99100.91;4993294;28;103264;-68
2024/03/21 10:26:32;;;;;;;16.05;7.05;;;;;;;16.80;55.59;99091.81;4983782;27;102877;-68
2024/03/21 10:28:58;;;;;;;17.60;7.10;;;;;;;16.86;56.10;99092.84;4998882;28;104590;-69
2024/03/21 10:31:25;;;;;;;15.60;6.90;;;;;;;17.17;54.54;99097.72;4978714;28;103329;-69
2024/03/21 10:33:57;;;;;;;12.60;6.43;;;;;;;17.22;54.88;99103.31;4959191;28;102786;-68
2024/03/21 10:36:23;;;;;;;10.45;5.80;;;;;;;17.20;54.79;99104.53;4979550;27;102747;-70
2024/03/21 10:38:49;;;;;;;10.98;6.78;;;;;;;17.15;54.21;99097.13;4968167;28;106274;-69
2024/03/21 10:41:18;;;;;;;10.30;6.38;;;;;;;16.93;55.43;99098.28;4955253;27;103525;-70
2024/03/21 10:43:47;;;;;;;12.80;6.35;;;;;;;17.20;54.28;99096.50;4975243;28;103228;-69
2024/03/21 10:46:14;;;;;;;13.55;5.50;;;;;;;17.66;54.10;99111.84;4975143;28;103860;-69
2024/03/21 10:48:40;;;;;;;10.02;5.40;;;;;;;17.53;54.03;99114.53;4992952;28;104199;-70
2024/03/21 10:51:13;;;;;;;11.77;5.90;;;;;;;17.52;53.74;99112.88;4996856;28;103183;-70
2024/03/21 10:53:39;;;;;;;10.68;5.68;;;;;;;17.62;53.09;99121.34;4976783;28;103427;-69
2024/03/21 10:56:09;;;;;;;16.02;5.07;;;;;;;17.43;52.86;99112.22;5003884;28;102799;-70
2024/03/21 10:58:45;;;;;;;11.77;5.43;;;;;;;17.69;52.74;99119.47;5003358;27;104737;-69
2024/03/21 11:01:14;;;;;;;7.25;4.68;;;;;;;17.22;53.84;99113.19;4986812;27;103072;-69
2024/03/21 11:03:52;;;;;;;12.88;5.38;;;;;;;17.71;52.76;99111.22;4990091;28;103147;-69
2024/03/21 11:06:22;;;;;;;12.43;4.82;;;;;;;17.17;53.20;99121.00;4975227;27;103147;-69
2024/03/21 11:08:54;;;;;;;9.65;5.28;;;;;;;17.76;52.56;99124.03;4997723;28;103332;-69
2024/03/21 11:11:23;;;;;;;11.63;4.95;;;;;;;17.61;53.24;99111.63;4983418;27;105192;-70
2024/03/21 11:13:52;;;;;;;10.20;4.07;;;;;;;17.86;52.98;99111.88;4971270;27;102808;-69
2024/03/21 11:16:18;;;;;;;15.75;5.28;;;;;;;18.22;51.81;99116.03;5005618;27;103302;-69
2024/03/21 11:18:44;;;;;;;10.15;5.90;;;;;;;18.37;51.00;99118.47;4964568;28;105768;-69
2024/03/21 11:21:13;;;;;;;12.98;7.85;;;;;;;17.72;52.44;99127.13;4981199;28;103185;-69
2024/03/21 11:23:43;;;;;;;14.73;6.63;;;;;;;18.40;50.98;99125.28;4979174;27;103071;-68
2024/03/21 11:26:16;;;;;;;13.32;7.88;;;;;;;18.45;50.86;99132.69;4997095;27;103199;-68
2024/03/21 11:28:45;;;;;;;15.77;8.93;;;;;;;18.62;50.33;99125.84;4975095;28;108451;-68
2024/03/21 11:31:24;;;;;;;15.02;8.15;;;;;;;18.21;51.72;99127.78;4995675;27;103985;-70